createdAt,value
2024-02-23T00:00:06.520Z,94870.00
2024-02-23T00:02:33.768Z,94890.00
2024-02-23T00:05:00.814Z,94887.00
2024-02-23T00:07:27.661Z,94894.00
2024-02-23T00:09:54.454Z,94905.00
2024-02-23T00:12:21.368Z,94913.00
2024-02-23T00:14:48.296Z,94917.00
2024-02-23T00:17:15.475Z,94931.00
2024-02-23T00:19:42.393Z,94928.00
2024-02-23T00:22:09.547Z,94929.00
2024-02-23T00:24:37.885Z,94947.00
2024-02-23T00:27:04.961Z,94954.00
2024-02-23T00:29:31.896Z,94964.00
2024-02-23T00:31:58.800Z,94967.00
2024-02-23T00:34:26.427Z,94969.00
2024-02-23T00:36:53.814Z,94972.00
2024-02-23T00:39:20.627Z,94971.00
2024-02-23T00:41:47.476Z,94975.00
2024-02-23T00:44:14.337Z,94982.00
2024-02-23T00:46:41.202Z,94977.00
2024-02-23T00:49:08.271Z,95011.00
2024-02-23T00:51:35.207Z,95019.00
2024-02-23T00:54:02.119Z,94989.00
2024-02-23T00:56:35.922Z,95010.00
2024-02-23T00:59:07.992Z,95011.00
2024-02-23T01:01:34.894Z,95025.00
2024-02-23T01:04:01.756Z,95019.00
2024-02-23T01:06:29.888Z,95007.00
2024-02-23T01:08:57.093Z,95018.00
2024-02-23T01:11:24.206Z,95035.00
2024-02-23T01:13:51.379Z,95037.00
2024-02-23T01:16:18.240Z,95050.00
2024-02-23T01:18:45.187Z,95046.00
2024-02-23T01:21:12.270Z,95059.00
2024-02-23T01:23:39.118Z,95061.00
2024-02-23T01:26:06.289Z,95056.00
2024-02-23T01:28:33.194Z,95055.00
2024-02-23T01:31:00.479Z,95060.00
2024-02-23T01:33:27.916Z,95082.00
2024-02-23T01:35:54.844Z,95083.00
2024-02-23T01:38:23.116Z,95075.00
2024-02-23T01:40:50.331Z,95073.00
2024-02-23T01:43:17.531Z,95080.00
2024-02-23T01:45:44.410Z,95070.00
2024-02-23T01:48:11.527Z,95088.00
2024-02-23T01:50:39.626Z,95074.00
2024-02-23T01:53:06.783Z,95075.00
2024-02-23T01:55:36.547Z,95081.00
2024-02-23T01:58:08.393Z,95090.00
2024-02-23T02:00:37.660Z,95096.00
2024-02-23T02:03:08.880Z,95090.00
2024-02-23T02:05:38.848Z,95101.00
2024-02-23T02:08:06.694Z,95105.00
2024-02-23T02:10:33.535Z,95105.00
2024-02-23T02:13:09.222Z,95097.00
2024-02-23T02:15:36.349Z,95110.00
2024-02-23T02:18:03.590Z,95126.00
2024-02-23T02:20:35.221Z,95120.00
2024-02-23T02:23:02.306Z,95129.00
2024-02-23T02:25:29.401Z,95137.00
2024-02-23T02:27:56.279Z,95133.00
2024-02-23T02:30:23.523Z,95139.00
2024-02-23T02:32:50.402Z,95153.00
2024-02-23T02:35:17.486Z,95154.00
2024-02-23T02:37:44.380Z,95167.00
2024-02-23T02:40:11.654Z,95157.00
2024-02-23T02:42:38.524Z,95172.00
2024-02-23T02:45:05.957Z,95180.00
2024-02-23T02:47:33.010Z,95188.00
2024-02-23T02:50:00.049Z,95183.00
2024-02-23T02:52:26.959Z,95172.00
2024-02-23T02:54:54.113Z,95187.00
2024-02-23T02:57:21.232Z,95185.00
2024-02-23T02:59:48.268Z,95176.00
2024-02-23T03:02:15.342Z,95189.00
2024-02-23T03:04:52.202Z,95189.00
2024-02-23T03:07:19.205Z,95197.00
2024-02-23T03:09:46.343Z,95192.00
2024-02-23T03:12:13.305Z,95196.00
2024-02-23T03:14:41.293Z,95193.00
2024-02-23T03:17:10.235Z,95197.00
2024-02-23T03:19:37.918Z,95192.00
2024-02-23T03:22:05.792Z,95204.00
2024-02-23T03:24:33.044Z,95202.00
2024-02-23T03:27:00.112Z,95202.00
2024-02-23T03:29:30.383Z,95210.00
2024-02-23T03:31:57.826Z,95195.00
2024-02-23T03:34:24.828Z,95211.00
2024-02-23T03:36:51.694Z,95222.00
2024-02-23T03:39:18.788Z,95215.00
2024-02-23T03:41:45.673Z,95210.00
2024-02-23T03:44:12.540Z,95224.00
2024-02-23T03:46:39.428Z,95224.00
2024-02-23T03:49:06.266Z,95209.00
2024-02-23T03:51:37.887Z,95218.00
2024-02-23T03:54:04.813Z,95220.00
2024-02-23T03:56:38.949Z,95227.00
2024-02-23T03:59:05.909Z,95225.00
2024-02-23T04:01:32.873Z,95217.00
2024-02-23T04:04:00.249Z,95229.00
2024-02-23T04:06:27.188Z,95226.00
2024-02-23T04:08:54.066Z,95230.00
2024-02-23T04:11:21.035Z,95236.00
2024-02-23T04:13:50.757Z,95216.00
2024-02-23T04:16:19.286Z,95233.00
2024-02-23T04:18:46.179Z,95231.00
2024-02-23T04:21:13.104Z,95235.00
2024-02-23T04:23:39.926Z,95226.00
2024-02-23T04:26:06.769Z,95227.00
2024-02-23T04:28:34.960Z,95230.00
2024-02-23T04:31:02.124Z,95236.00
2024-02-23T04:33:29.000Z,95229.00
2024-02-23T04:35:56.155Z,95244.00
2024-02-23T04:38:23.046Z,95236.00
2024-02-23T04:40:50.218Z,95237.00
2024-02-23T04:43:17.138Z,95231.00
2024-02-23T04:45:43.987Z,95247.00
2024-02-23T04:48:11.465Z,95239.00
2024-02-23T04:50:38.529Z,95240.00
2024-02-23T04:53:05.541Z,95247.00
2024-02-23T04:55:32.609Z,95239.00
2024-02-23T04:57:59.467Z,95238.00
2024-02-23T05:00:29.793Z,95233.00
2024-02-23T05:02:56.687Z,95236.00
2024-02-23T05:05:23.590Z,95247.00
2024-02-23T05:07:50.508Z,95254.00
2024-02-23T05:10:18.270Z,95246.00
2024-02-23T05:12:45.278Z,95247.00
2024-02-23T05:15:12.660Z,95253.00
2024-02-23T05:17:39.555Z,95272.00
2024-02-23T05:20:11.379Z,95264.00
2024-02-23T05:22:40.508Z,95241.00
2024-02-23T05:25:08.089Z,95265.00
2024-02-23T05:27:34.900Z,95258.00
2024-02-23T05:30:02.285Z,95239.00
2024-02-23T05:32:29.184Z,95248.00
2024-02-23T05:34:57.926Z,95238.00
2024-02-23T05:37:25.249Z,95238.00
2024-02-23T05:39:52.780Z,95243.00
2024-02-23T05:42:19.738Z,95249.00
2024-02-23T05:44:50.020Z,95255.00
2024-02-23T05:47:17.108Z,95244.00
2024-02-23T05:49:44.131Z,95258.00
2024-02-23T05:52:11.198Z,95258.00
2024-02-23T05:54:38.002Z,95249.00
2024-02-23T05:57:05.785Z,95249.00
2024-02-23T05:59:32.967Z,95276.00
2024-02-23T06:01:59.868Z,95262.00
2024-02-23T06:04:27.719Z,95267.00
2024-02-23T06:06:54.760Z,95250.00
2024-02-23T06:09:22.666Z,95251.00
2024-02-23T06:11:49.654Z,95261.00
2024-02-23T06:14:16.772Z,95256.00
2024-02-23T06:16:44.029Z,95241.00
2024-02-23T06:19:10.996Z,95237.00
2024-02-23T06:21:38.049Z,95243.00
2024-02-23T06:24:05.830Z,95249.00
2024-02-23T06:26:33.140Z,95241.00
2024-02-23T06:29:00.541Z,95248.00
2024-02-23T06:31:27.610Z,95255.00
2024-02-23T06:33:54.851Z,95253.00
2024-02-23T06:36:22.058Z,95250.00
2024-02-23T06:38:49.000Z,95256.00
2024-02-23T06:41:18.348Z,95260.00
2024-02-23T06:43:45.296Z,95249.00
2024-02-23T06:46:12.251Z,95235.00
2024-02-23T06:48:39.746Z,95258.00
2024-02-23T06:51:10.470Z,95243.00
2024-02-23T06:53:37.742Z,95247.00
2024-02-23T06:56:05.148Z,95268.00
2024-02-23T06:58:32.069Z,95248.00
2024-02-23T07:00:59.129Z,95264.00
2024-02-23T07:03:26.432Z,95253.00
2024-02-23T07:05:53.485Z,95275.00
2024-02-23T07:08:20.480Z,95272.00
2024-02-23T07:10:47.707Z,95270.00
2024-02-23T07:13:14.625Z,95277.00
2024-02-23T07:15:41.470Z,95266.00
2024-02-23T07:18:09.694Z,95281.00
2024-02-23T07:20:39.003Z,95282.00
2024-02-23T07:23:06.405Z,95303.00
2024-02-23T07:25:33.543Z,95288.00
2024-02-23T07:28:00.383Z,95293.00
2024-02-23T07:30:27.513Z,95298.00
2024-02-23T07:32:54.591Z,95293.00
2024-02-23T07:35:21.655Z,95301.00
2024-02-23T07:37:48.948Z,95294.00
2024-02-23T07:40:18.317Z,95285.00
2024-02-23T07:42:47.229Z,95279.00
2024-02-23T07:45:14.396Z,95276.00
2024-02-23T07:47:41.417Z,95273.00
2024-02-23T07:50:09.322Z,95270.00
2024-02-23T07:52:36.309Z,95258.00
2024-02-23T07:55:06.430Z,95274.00
2024-02-23T07:57:34.011Z,95279.00
2024-02-23T08:00:00.885Z,95288.00
2024-02-23T08:02:27.885Z,95293.00
2024-02-23T08:04:54.983Z,95293.00
2024-02-23T08:07:21.952Z,95279.00
2024-02-23T08:09:48.790Z,95295.00
2024-02-23T08:12:17.245Z,95300.00
2024-02-23T08:14:45.119Z,95300.00
2024-02-23T08:17:12.324Z,95296.00
2024-02-23T08:19:39.345Z,95304.00
2024-02-23T08:22:06.226Z,95298.00
2024-02-23T08:24:33.079Z,95321.00
2024-02-23T08:26:59.941Z,95300.00
2024-02-23T08:29:28.464Z,95293.00
2024-02-23T08:31:55.634Z,95299.00
2024-02-23T08:34:22.611Z,95307.00
2024-02-23T08:36:49.662Z,95309.00
2024-02-23T08:39:16.511Z,95316.00
2024-02-23T08:41:43.393Z,95314.00
2024-02-23T08:44:10.294Z,95321.00
2024-02-23T08:46:40.346Z,95315.00
2024-02-23T08:49:07.329Z,95325.00
2024-02-23T08:51:34.236Z,95322.00
2024-02-23T08:54:05.454Z,95313.00
2024-02-23T08:56:33.026Z,95315.00
2024-02-23T08:59:00.202Z,95326.00
2024-02-23T09:01:27.393Z,95323.00
2024-02-23T09:03:54.284Z,95310.00
2024-02-23T09:06:21.237Z,95308.00
2024-02-23T09:08:48.562Z,95302.00
2024-02-23T09:11:16.771Z,95314.00
2024-02-23T09:13:43.875Z,95316.00
2024-02-23T09:16:10.794Z,95279.00
2024-02-23T09:18:37.778Z,95313.00
2024-02-23T09:21:05.241Z,95298.00
2024-02-23T09:23:32.251Z,95310.00
2024-02-23T09:25:59.238Z,95324.00
2024-02-23T09:28:26.143Z,95317.00
2024-02-23T09:30:54.645Z,95313.00
2024-02-23T09:33:22.739Z,95326.00
2024-02-23T09:35:49.961Z,95315.00
2024-02-23T09:38:16.850Z,95326.00
2024-02-23T09:40:43.761Z,95328.00
2024-02-23T09:43:12.632Z,95323.00
2024-02-23T09:45:39.817Z,95329.00
2024-02-23T09:48:10.154Z,95326.00
2024-02-23T09:50:39.089Z,95329.00
2024-02-23T09:53:11.508Z,95327.00
2024-02-23T09:55:38.739Z,95343.00
2024-02-23T09:58:09.010Z,95327.00
2024-02-23T10:00:39.198Z,95326.00
2024-02-23T10:03:07.017Z,95346.00
2024-02-23T10:05:36.888Z,95347.00
2024-02-23T10:08:06.568Z,95345.00
2024-02-23T10:10:39.669Z,95343.00
2024-02-23T10:13:06.982Z,95349.00
2024-02-23T10:15:33.913Z,95340.00
2024-02-23T10:18:01.303Z,95337.00
2024-02-23T10:20:28.486Z,95339.00
2024-02-23T10:22:56.276Z,95322.00
2024-02-23T10:25:23.401Z,95317.00
2024-02-23T10:27:50.531Z,95334.00
2024-02-23T10:30:17.622Z,95336.00
2024-02-23T10:32:44.784Z,95317.00
2024-02-23T10:35:17.746Z,95332.00
2024-02-23T10:37:49.823Z,95305.00
2024-02-23T10:40:18.690Z,95333.00
2024-02-23T10:42:52.823Z,95337.00
2024-02-23T10:45:22.201Z,95316.00
2024-02-23T10:47:51.671Z,95324.00
2024-02-23T10:50:21.355Z,95331.00
2024-02-23T10:52:48.331Z,95321.00
2024-02-23T10:55:16.304Z,95326.00
2024-02-23T10:57:43.355Z,95344.00
2024-02-23T11:00:11.746Z,95343.00
2024-02-23T11:02:49.791Z,95334.00
2024-02-23T11:05:18.234Z,95329.00
2024-02-23T11:07:51.898Z,95336.00
2024-02-23T11:10:20.287Z,95344.00
2024-02-23T11:12:57.672Z,95339.00
2024-02-23T11:15:29.848Z,95334.00
2024-02-23T11:17:57.070Z,95333.00
2024-02-23T11:20:30.295Z,95348.00
2024-02-23T11:22:59.193Z,95356.00
2024-02-23T11:25:28.758Z,95347.00
2024-02-23T11:27:55.555Z,95347.00
2024-02-23T11:30:22.521Z,95341.00
2024-02-23T11:32:55.382Z,95350.00
2024-02-23T11:35:28.288Z,95346.00
2024-02-23T11:38:01.454Z,95335.00
2024-02-23T11:40:32.365Z,95329.00
2024-02-23T11:43:03.494Z,95333.00
2024-02-23T11:45:32.052Z,95337.00
2024-02-23T11:48:00.222Z,95334.00
2024-02-23T11:50:27.491Z,95338.00
2024-02-23T11:52:55.268Z,95335.00
2024-02-23T11:55:24.229Z,95332.00
2024-02-23T11:57:58.718Z,95330.00
2024-02-23T12:00:32.870Z,95320.00
2024-02-23T12:03:00.275Z,95331.00
2024-02-23T12:05:28.120Z,95322.00
2024-02-23T12:07:55.529Z,95310.00
2024-02-23T12:10:22.879Z,95345.00
2024-02-23T12:12:50.286Z,95338.00
2024-02-23T12:15:17.543Z,95336.00
2024-02-23T12:17:51.634Z,95337.00
2024-02-23T12:20:19.095Z,95340.00
2024-02-23T12:22:46.243Z,95352.00
2024-02-23T12:25:16.564Z,95330.00
2024-02-23T12:27:44.383Z,95329.00
2024-02-23T12:30:18.363Z,95326.00
2024-02-23T12:32:45.404Z,95334.00
2024-02-23T12:35:14.198Z,95337.00
2024-02-23T12:37:44.779Z,95316.00
2024-02-23T12:40:13.545Z,95332.00
2024-02-23T12:42:40.432Z,95348.00
2024-02-23T12:45:08.159Z,95338.00
2024-02-23T12:47:35.136Z,95344.00
2024-02-23T12:50:02.231Z,95343.00
2024-02-23T12:52:29.293Z,95337.00
2024-02-23T12:54:56.265Z,95333.00
2024-02-23T12:57:23.120Z,95330.00
2024-02-23T12:59:50.217Z,95337.00
2024-02-23T13:02:17.406Z,95330.00
2024-02-23T13:04:49.969Z,95335.00
2024-02-23T13:07:18.026Z,95320.00
2024-02-23T13:09:45.739Z,95327.00
2024-02-23T13:12:12.799Z,95332.00
2024-02-23T13:14:40.030Z,95331.00
2024-02-23T13:17:06.986Z,95333.00
2024-02-23T13:19:34.016Z,95339.00
2024-02-23T13:22:02.097Z,95331.00
2024-02-23T13:24:28.992Z,95326.00
2024-02-23T13:26:56.274Z,95330.00
2024-02-23T13:29:23.278Z,95336.00
2024-02-23T13:31:50.392Z,95342.00
2024-02-23T13:34:19.087Z,95356.00
2024-02-23T13:36:46.187Z,95341.00
2024-02-23T13:39:13.265Z,95335.00
2024-02-23T13:41:40.292Z,95336.00
2024-02-23T13:44:07.588Z,95359.00
2024-02-23T13:46:39.934Z,95349.00
2024-02-23T13:49:10.330Z,95369.00
2024-02-23T13:51:37.503Z,95357.00
2024-02-23T13:54:04.538Z,95367.00
2024-02-23T13:56:31.495Z,95354.00
2024-02-23T13:58:58.515Z,95363.00
2024-02-23T14:01:25.890Z,95354.00
2024-02-23T14:03:52.922Z,95350.00
2024-02-23T14:06:19.863Z,95343.00
2024-02-23T14:08:48.413Z,95350.00
2024-02-23T14:11:15.542Z,95342.00
2024-02-23T14:13:42.896Z,95329.00
2024-02-23T14:16:09.770Z,95342.00
2024-02-23T14:18:38.735Z,95340.00
2024-02-23T14:21:06.478Z,95337.00
2024-02-23T14:23:34.847Z,95344.00
2024-02-23T14:26:01.887Z,95337.00
2024-02-23T14:28:29.032Z,95360.00
2024-02-23T14:30:56.386Z,95351.00
2024-02-23T14:33:23.706Z,95371.00
2024-02-23T14:35:50.995Z,95368.00
2024-02-23T14:38:18.756Z,95376.00
2024-02-23T14:40:45.702Z,95364.00
2024-02-23T14:43:13.061Z,95359.00
2024-02-23T14:45:40.159Z,95347.00
2024-02-23T14:48:07.978Z,95359.00
2024-02-23T14:50:35.065Z,95347.00
2024-02-23T14:53:02.391Z,95368.00
2024-02-23T14:55:30.143Z,95358.00
2024-02-23T14:57:59.002Z,95353.00
2024-02-23T15:00:25.926Z,95348.00
2024-02-23T15:02:53.110Z,95345.00
2024-02-23T15:05:20.451Z,95346.00
2024-02-23T15:07:47.570Z,95340.00
2024-02-23T15:10:14.962Z,95342.00
2024-02-23T15:12:42.323Z,95332.00
2024-02-23T15:15:11.106Z,95339.00
2024-02-23T15:17:38.339Z,95351.00
2024-02-23T15:20:06.214Z,95352.00
2024-02-23T15:22:33.240Z,95348.00
2024-02-23T15:25:00.905Z,95349.00
2024-02-23T15:27:28.410Z,95339.00
2024-02-23T15:29:55.289Z,95351.00
2024-02-23T15:32:23.278Z,95358.00
2024-02-23T15:34:50.245Z,95359.00
2024-02-23T15:37:17.048Z,95359.00
2024-02-23T15:39:44.068Z,95359.00
2024-02-23T15:42:11.110Z,95352.00
2024-02-23T15:44:38.280Z,95344.00
2024-02-23T15:47:05.512Z,95366.00
2024-02-23T15:49:51.795Z,95364.00
2024-02-23T15:52:20.419Z,95368.00
2024-02-23T15:54:47.332Z,95376.00
2024-02-23T15:57:14.262Z,95376.00
2024-02-23T15:59:41.841Z,95372.00
2024-02-23T16:02:09.773Z,95369.00
2024-02-23T16:04:37.011Z,95372.00
2024-02-23T16:07:07.495Z,95367.00
2024-02-23T16:09:34.405Z,95380.00
2024-02-23T16:12:01.493Z,95367.00
2024-02-23T16:14:28.365Z,95369.00
2024-02-23T16:16:55.581Z,95366.00
2024-02-23T16:19:23.596Z,95371.00
2024-02-23T16:21:50.585Z,95364.00
2024-02-23T16:24:17.651Z,95382.00
2024-02-23T16:26:44.541Z,95372.00
2024-02-23T16:29:11.743Z,95362.00
2024-02-23T16:31:39.397Z,95369.00
2024-02-23T16:34:06.561Z,95368.00
2024-02-23T16:36:33.669Z,95358.00
2024-02-23T16:39:00.627Z,95359.00
2024-02-23T16:41:27.790Z,95360.00
2024-02-23T16:43:56.313Z,95360.00
2024-02-23T16:46:23.353Z,95353.00
2024-02-23T16:48:50.406Z,95363.00
2024-02-23T16:51:17.296Z,95372.00
2024-02-23T16:53:44.547Z,95367.00
2024-02-23T16:56:11.823Z,95372.00
2024-02-23T16:58:38.936Z,95365.00
2024-02-23T17:01:07.519Z,95361.00
2024-02-23T17:03:36.230Z,95365.00
2024-02-23T17:06:05.714Z,95363.00
2024-02-23T17:08:33.462Z,95362.00
2024-02-23T17:11:00.649Z,95364.00
2024-02-23T17:13:27.742Z,95371.00
2024-02-23T17:15:55.479Z,95380.00
2024-02-23T17:18:25.627Z,95373.00
2024-02-23T17:20:53.100Z,95361.00
2024-02-23T17:23:20.381Z,95397.00
2024-02-23T17:25:47.253Z,95381.00
2024-02-23T17:28:14.343Z,95366.00
2024-02-23T17:30:44.180Z,95392.00
2024-02-23T17:33:11.069Z,95382.00
2024-02-23T17:35:38.208Z,95390.00
2024-02-23T17:38:05.237Z,95406.00
2024-02-23T17:40:32.232Z,95403.00
2024-02-23T17:42:59.162Z,95418.00
2024-02-23T17:45:25.971Z,95410.00
2024-02-23T17:47:55.415Z,95402.00
2024-02-23T17:50:23.173Z,95398.00
2024-02-23T17:52:50.149Z,95401.00
2024-02-23T17:55:17.364Z,95404.00
2024-02-23T17:57:45.334Z,95395.00
2024-02-23T18:00:14.558Z,95396.00
2024-02-23T18:02:41.548Z,95392.00
2024-02-23T18:05:08.801Z,95399.00
2024-02-23T18:07:36.367Z,95410.00
2024-02-23T18:10:04.113Z,95392.00
2024-02-23T18:12:31.144Z,95408.00
2024-02-23T18:14:58.122Z,95406.00
2024-02-23T18:17:25.379Z,95404.00
2024-02-23T18:19:52.543Z,95402.00
2024-02-23T18:22:19.419Z,95412.00
2024-02-23T18:24:46.275Z,95414.00
2024-02-23T18:27:13.236Z,95410.00
2024-02-23T18:29:42.247Z,95411.00
2024-02-23T18:32:12.977Z,95399.00
2024-02-23T18:34:40.114Z,95421.00
2024-02-23T18:37:09.429Z,95421.00
2024-02-23T18:39:36.974Z,95427.00
2024-02-23T18:42:04.271Z,95437.00
2024-02-23T18:44:31.141Z,95430.00
2024-02-23T18:46:58.209Z,95436.00
2024-02-23T18:49:27.147Z,95439.00
2024-02-23T18:51:54.296Z,95436.00
2024-02-23T18:54:21.460Z,95434.00
2024-02-23T18:56:48.300Z,95437.00
2024-02-23T18:59:15.143Z,95432.00
2024-02-23T19:01:42.878Z,95437.00
2024-02-23T19:04:10.119Z,95437.00
2024-02-23T19:06:37.051Z,95434.00
2024-02-23T19:09:06.106Z,95431.00
2024-02-23T19:11:34.514Z,95442.00
2024-02-23T19:14:01.610Z,95439.00
2024-02-23T19:16:29.215Z,95436.00
2024-02-23T19:18:56.190Z,95425.00
2024-02-23T19:21:23.205Z,95433.00
2024-02-23T19:23:50.321Z,95431.00
2024-02-23T19:26:17.572Z,95440.00
2024-02-23T19:28:44.447Z,95449.00
2024-02-23T19:31:11.423Z,95432.00
2024-02-23T19:33:38.283Z,95440.00
2024-02-23T19:36:06.263Z,95444.00
2024-02-23T19:38:33.139Z,95438.00
2024-02-23T19:41:01.161Z,95444.00
2024-02-23T19:43:31.151Z,95441.00
2024-02-23T19:46:07.210Z,95446.00
2024-02-23T19:48:38.280Z,95465.00
2024-02-23T19:51:07.126Z,95458.00
2024-02-23T19:53:35.353Z,95446.00
2024-02-23T19:56:02.437Z,95479.00
2024-02-23T19:58:29.286Z,95482.00
2024-02-23T20:00:56.404Z,95479.00
2024-02-23T20:03:23.495Z,95476.00
2024-02-23T20:05:50.734Z,95494.00
2024-02-23T20:08:18.089Z,95490.00
2024-02-23T20:10:45.106Z,95492.00
2024-02-23T20:13:12.323Z,95493.00
2024-02-23T20:15:39.459Z,95484.00
2024-02-23T20:18:06.556Z,95500.00
2024-02-23T20:20:35.962Z,95485.00
2024-02-23T20:23:03.063Z,95481.00
2024-02-23T20:25:29.972Z,95477.00
2024-02-23T20:27:56.901Z,95488.00
2024-02-23T20:30:24.010Z,95488.00
2024-02-23T20:32:50.915Z,95490.00
2024-02-23T20:35:18.508Z,95489.00
2024-02-23T20:37:45.466Z,95495.00
2024-02-23T20:40:12.367Z,95508.00
2024-02-23T20:42:39.926Z,95488.00
2024-02-23T20:45:09.469Z,95485.00
2024-02-23T20:47:36.789Z,95490.00
2024-02-23T20:50:04.984Z,95480.00
2024-02-23T20:52:32.136Z,95473.00
2024-02-23T20:54:58.995Z,95476.00
2024-02-23T20:57:25.831Z,95475.00
2024-02-23T20:59:52.756Z,95480.00
2024-02-23T21:02:23.159Z,95483.00
2024-02-23T21:04:51.087Z,95489.00
2024-02-23T21:07:19.378Z,95481.00
2024-02-23T21:09:47.116Z,95487.00
2024-02-23T21:12:14.484Z,95478.00
2024-02-23T21:14:41.685Z,95492.00
2024-02-23T21:17:08.872Z,95483.00
2024-02-23T21:19:35.858Z,95486.00
2024-02-23T21:22:03.689Z,95484.00
2024-02-23T21:24:31.400Z,95473.00
2024-02-23T21:26:58.402Z,95493.00
2024-02-23T21:29:25.274Z,95474.00
2024-02-23T21:31:52.191Z,95472.00
2024-02-23T21:34:19.458Z,95473.00
2024-02-23T21:36:46.309Z,95479.00
2024-02-23T21:39:13.141Z,95480.00
2024-02-23T21:41:40.320Z,95480.00
2024-02-23T21:44:08.387Z,95485.00
2024-02-23T21:46:35.272Z,95483.00
2024-02-23T21:49:03.538Z,95475.00
2024-02-23T21:51:31.023Z,95473.00
2024-02-23T21:53:58.008Z,95450.00
2024-02-23T21:56:25.537Z,95480.00
2024-02-23T21:58:52.441Z,95467.00
2024-02-23T22:01:23.108Z,95463.00
2024-02-23T22:03:53.925Z,95467.00
2024-02-23T22:06:22.043Z,95460.00
2024-02-23T22:08:49.351Z,95470.00
2024-02-23T22:11:16.474Z,95468.00
2024-02-23T22:13:43.770Z,95460.00
2024-02-23T22:16:10.638Z,95458.00
2024-02-23T22:18:37.995Z,95467.00
2024-02-23T22:21:05.370Z,95465.00
2024-02-23T22:23:32.310Z,95463.00
2024-02-23T22:25:59.991Z,95449.00
2024-02-23T22:28:26.837Z,95461.00
2024-02-23T22:30:53.886Z,95471.00
2024-02-23T22:33:20.995Z,95477.00
2024-02-23T22:35:48.041Z,95476.00
2024-02-23T22:38:15.540Z,95487.00
2024-02-23T22:40:42.488Z,95496.00
2024-02-23T22:43:09.559Z,95481.00
2024-02-23T22:45:36.526Z,95494.00
2024-02-23T22:48:04.101Z,95486.00
2024-02-23T22:50:31.360Z,95492.00
2024-02-23T22:52:58.232Z,95494.00
2024-02-23T22:55:25.568Z,95498.00
2024-02-23T22:57:52.392Z,95491.00
2024-02-23T23:00:19.574Z,95497.00
2024-02-23T23:02:46.475Z,95497.00
2024-02-23T23:05:13.805Z,95492.00
2024-02-23T23:07:41.044Z,95483.00
2024-02-23T23:10:08.921Z,95498.00
2024-02-23T23:12:35.797Z,95483.00
2024-02-23T23:15:02.702Z,95496.00
2024-02-23T23:17:29.771Z,95480.00
2024-02-23T23:19:56.727Z,95489.00
2024-02-23T23:22:23.540Z,95482.00
2024-02-23T23:24:50.344Z,95490.00
2024-02-23T23:27:17.221Z,95481.00
2024-02-23T23:29:44.220Z,95481.00
2024-02-23T23:32:11.317Z,95477.00
2024-02-23T23:34:39.340Z,95481.00
2024-02-23T23:37:06.499Z,95494.00
2024-02-23T23:39:33.612Z,95482.00
2024-02-23T23:42:00.602Z,95494.00
2024-02-23T23:44:27.871Z,95492.00
2024-02-23T23:46:54.803Z,95485.00
2024-02-23T23:49:21.745Z,95489.00
2024-02-23T23:51:53.392Z,95482.00
2024-02-23T23:54:27.957Z,95493.00
2024-02-23T23:56:55.166Z,95491.00
2024-02-23T23:59:22.117Z,95495.00
